Time;durP1;ratioP1;P1;durP2;ratioP2;P2;SDS_P1;SDS_P2;PMS_P1;PMS_P2;Temp;Humidity;BMP_temperature;BMP_pressure;BME280_temperature;BME280_humidity;BME280_pressure;Samples;Min_cycle;Max_cycle;Signal;HPM_P1;HPM_P2
2023/10/30 00:01:23;;;;;;;3.20;1.17;;;10.30;99.90;;;;;;4976413;28;20741;-81
2023/10/30 00:03:51;;;;;;;3.00;0.70;;;10.30;99.90;;;;;;4984941;28;20893;-80
2023/10/30 00:06:18;;;;;;;1.80;0.80;;;10.30;99.90;;;;;;4983644;28;20328;-79
2023/10/30 00:08:45;;;;;;;2.73;1.20;;;10.30;99.90;;;;;;4981779;28;20260;-80
2023/10/30 00:11:12;;;;;;;3.97;1.10;;;10.40;99.90;;;;;;4996559;28;20657;-80
2023/10/30 00:13:41;;;;;;;2.80;0.90;;;10.40;99.90;;;;;;4990910;28;20567;-79
2023/10/30 00:16:10;;;;;;;3.13;1.00;;;10.40;99.90;;;;;;4982090;28;20668;-81
2023/10/30 00:18:41;;;;;;;5.37;1.20;;;10.40;99.90;;;;;;4990035;28;20222;-81
2023/10/30 00:21:08;;;;;;;3.90;1.00;;;10.50;99.90;;;;;;4981027;28;20222;-83
2023/10/30 00:23:35;;;;;;;4.37;1.07;;;10.50;99.90;;;;;;4986124;28;20240;-82
2023/10/30 00:26:02;;;;;;;3.60;1.00;;;10.50;99.90;;;;;;4984985;28;20224;-82
2023/10/30 00:28:30;;;;;;;3.00;0.93;;;10.50;99.90;;;;;;4985370;28;20236;-80
2023/10/30 00:30:57;;;;;;;2.20;0.90;;;10.50;99.90;;;;;;4983865;28;20230;-82
2023/10/30 00:33:24;;;;;;;4.00;1.10;;;10.50;99.90;;;;;;4983432;28;20245;-82
2023/10/30 00:35:52;;;;;;;4.00;1.33;;;10.60;99.90;;;;;;4987297;28;20313;-82
2023/10/30 00:38:19;;;;;;;5.10;1.30;;;10.60;99.90;;;;;;4978576;28;20330;-81
2023/10/30 00:40:46;;;;;;;5.07;1.03;;;10.60;99.90;;;;;;4988685;28;20565;-82
2023/10/30 00:43:13;;;;;;;3.70;1.00;;;10.60;99.90;;;;;;4970463;28;20320;-82
2023/10/30 00:45:39;;;;;;;3.37;1.40;;;10.60;99.90;;;;;;4987377;28;20225;-82
2023/10/30 00:48:07;;;;;;;3.70;0.97;;;10.60;99.90;;;;;;4990722;28;20235;-81
2023/10/30 00:50:33;;;;;;;6.20;1.20;;;10.60;99.90;;;;;;4985366;28;20234;-83
2023/10/30 00:53:01;;;;;;;4.00;1.23;;;10.60;99.90;;;;;;4973950;28;20930;-82
2023/10/30 00:55:28;;;;;;;3.00;1.03;;;10.60;99.90;;;;;;4977510;28;20228;-82
2023/10/30 00:57:55;;;;;;;5.97;1.60;;;10.70;99.90;;;;;;4986327;28;20235;-82
2023/10/30 01:00:21;;;;;;;6.23;1.40;;;10.70;99.90;;;;;;4987723;28;20227;-82
2023/10/30 01:02:48;;;;;;;3.23;1.30;;;10.70;99.90;;;;;;4983813;28;20238;-81
2023/10/30 01:05:15;;;;;;;6.03;1.50;;;10.70;99.90;;;;;;4982568;28;20314;-83
2023/10/30 01:07:42;;;;;;;4.67;1.30;;;10.70;99.90;;;;;;4981187;28;20255;-83
2023/10/30 01:10:10;;;;;;;6.87;1.33;;;10.70;99.90;;;;;;4984400;28;20225;-82
2023/10/30 01:12:37;;;;;;;5.03;1.20;;;10.70;99.90;;;;;;4987357;28;20241;-82
2023/10/30 01:15:04;;;;;;;5.77;1.13;;;10.70;99.90;;;;;;4981900;28;20578;-82
2023/10/30 01:17:31;;;;;;;5.20;1.20;;;10.70;99.90;;;;;;4984905;28;20312;-82
2023/10/30 01:20:01;;;;;;;3.83;1.03;;;10.80;99.90;;;;;;4986120;28;20657;-81
2023/10/30 01:22:28;;;;;;;6.90;1.30;;;10.80;99.90;;;;;;4987511;28;20242;-81
2023/10/30 01:24:55;;;;;;;3.60;1.20;;;10.80;99.90;;;;;;4995665;28;20242;-81
2023/10/30 01:27:23;;;;;;;4.10;1.20;;;10.80;99.90;;;;;;4992467;28;20315;-81
2023/10/30 01:29:49;;;;;;;2.17;0.90;;;10.80;99.90;;;;;;4990512;28;20301;-80
2023/10/30 01:32:16;;;;;;;2.37;1.10;;;10.70;99.90;;;;;;4984218;28;20226;-82
2023/10/30 01:34:44;;;;;;;4.87;1.13;;;10.70;99.90;;;;;;4986165;28;20249;-81
2023/10/30 01:37:10;;;;;;;3.70;1.30;;;10.70;99.90;;;;;;4987235;28;20222;-81
2023/10/30 01:39:37;;;;;;;4.83;1.23;;;10.60;99.90;;;;;;4970472;28;20790;-83
2023/10/30 01:42:04;;;;;;;5.47;1.40;;;10.60;99.90;;;;;;4988178;28;20242;-82
2023/10/30 01:44:32;;;;;;;3.57;0.97;;;10.50;99.90;;;;;;4969310;28;20228;-83
2023/10/30 01:46:59;;;;;;;3.63;1.27;;;10.40;99.90;;;;;;4984744;28;20818;-82
2023/10/30 01:49:26;;;;;;;5.53;1.00;;;10.40;99.90;;;;;;4989122;28;20647;-81
2023/10/30 01:51:54;;;;;;;4.40;1.37;;;10.30;99.90;;;;;;4979126;28;20250;-83
2023/10/30 01:54:21;;;;;;;6.77;1.63;;;10.30;99.90;;;;;;4975866;28;20649;-82
2023/10/30 01:56:48;;;;;;;4.73;1.03;;;10.20;99.90;;;;;;4983709;28;20318;-83
2023/10/30 01:59:15;;;;;;;5.43;1.10;;;10.10;99.90;;;;;;4991662;28;20752;-83
2023/10/30 02:01:44;;;;;;;6.70;1.30;;;10.10;99.90;;;;;;4985089;28;20233;-83
2023/10/30 02:04:12;;;;;;;1.27;0.90;;;10.10;99.90;;;;;;4981647;28;20277;-84
2023/10/30 02:06:39;;;;;;;2.93;1.10;;;10.00;99.90;;;;;;4980766;28;20285;-84
2023/10/30 02:09:06;;;;;;;5.80;1.20;;;10.00;99.90;;;;;;4984678;28;20221;-83
2023/10/30 02:11:33;;;;;;;3.93;1.10;;;10.00;99.90;;;;;;4985825;28;20523;-84
2023/10/30 02:13:59;;;;;;;4.23;1.10;;;10.00;99.90;;;;;;4998262;28;20685;-82
2023/10/30 02:16:26;;;;;;;3.87;1.20;;;9.90;99.90;;;;;;4985344;28;20692;-84
2023/10/30 02:18:54;;;;;;;5.53;1.50;;;9.90;99.90;;;;;;4991342;28;20750;-84
2023/10/30 02:21:21;;;;;;;4.43;1.40;;;9.90;99.90;;;;;;4986904;28;20218;-83
2023/10/30 02:23:48;;;;;;;5.57;1.10;;;9.90;99.90;;;;;;4990931;28;20318;-83
2023/10/30 02:26:16;;;;;;;3.60;1.27;;;9.80;99.90;;;;;;4984116;28;20521;-82
2023/10/30 02:28:43;;;;;;;4.37;1.13;;;9.80;99.90;;;;;;5020466;23;20233;-83
2023/10/30 02:31:10;;;;;;;3.63;1.20;;;9.80;99.90;;;;;;4992722;28;20237;-84
2023/10/30 02:33:37;;;;;;;3.80;1.17;;;9.80;99.90;;;;;;4995087;28;20283;-84
2023/10/30 02:36:05;;;;;;;5.83;1.30;;;9.80;99.90;;;;;;5009083;28;20320;-84
2023/10/30 02:38:32;;;;;;;4.90;1.00;;;9.80;99.90;;;;;;5009151;28;20240;-84
2023/10/30 02:41:00;;;;;;;3.57;1.20;;;9.80;99.90;;;;;;5011665;28;20291;-84
2023/10/30 02:43:28;;;;;;;3.83;1.37;;;9.80;99.90;;;;;;5010036;28;20726;-85
2023/10/30 02:45:57;;;;;;;3.77;1.10;;;9.80;99.90;;;;;;5008490;28;20230;-85
2023/10/30 02:48:24;;;;;;;2.90;1.40;;;9.80;99.90;;;;;;5010096;28;20261;-85
2023/10/30 02:50:52;;;;;;;5.63;1.43;;;9.80;99.90;;;;;;5010123;28;20243;-84
2023/10/30 02:53:19;;;;;;;4.83;1.23;;;9.80;99.90;;;;;;5008849;28;20228;-85
2023/10/30 02:55:46;;;;;;;3.17;1.40;;;9.70;99.90;;;;;;5011372;28;20229;-85
2023/10/30 02:58:13;;;;;;;5.37;1.20;;;9.80;99.90;;;;;;5009119;28;20233;-85
2023/10/30 03:00:42;;;;;;;4.87;1.20;;;9.80;99.90;;;;;;5008166;28;20232;-84
2023/10/30 03:03:09;;;;;;;3.63;1.30;;;9.80;99.90;;;;;;5007457;28;20610;-85
2023/10/30 03:05:37;;;;;;;3.33;1.43;;;9.80;99.90;;;;;;5009186;28;20235;-85
2023/10/30 03:08:04;;;;;;;4.50;1.50;;;9.70;99.90;;;;;;5009222;28;20245;-84
2023/10/30 03:10:31;;;;;;;4.53;1.30;;;9.70;99.90;;;;;;5011004;28;20698;-84
2023/10/30 03:13:01;;;;;;;6.40;1.53;;;9.70;99.90;;;;;;5009573;28;20260;-84
2023/10/30 03:15:27;;;;;;;3.87;1.37;;;9.70;99.90;;;;;;5008849;28;20703;-84
2023/10/30 03:17:56;;;;;;;8.70;1.77;;;9.70;99.90;;;;;;5011144;28;20324;-85
2023/10/30 03:20:23;;;;;;;7.37;1.53;;;9.70;99.90;;;;;;5010944;28;20644;-85
2023/10/30 03:22:50;;;;;;;5.50;1.50;;;9.70;99.90;;;;;;5008705;28;20232;-84
2023/10/30 03:25:17;;;;;;;4.63;1.30;;;9.70;99.90;;;;;;5004355;28;20240;-83
2023/10/30 03:27:43;;;;;;;4.43;1.30;;;9.70;99.90;;;;;;4988357;28;20238;-84
2023/10/30 03:30:11;;;;;;;7.83;1.43;;;9.70;99.90;;;;;;5004981;28;20225;-84
2023/10/30 03:32:38;;;;;;;9.30;1.57;;;9.70;99.90;;;;;;5006097;28;20228;-86
2023/10/30 03:35:07;;;;;;;4.83;1.47;;;9.70;99.90;;;;;;5005543;28;20246;-83
2023/10/30 03:37:33;;;;;;;3.90;1.40;;;9.70;99.90;;;;;;5005621;28;20224;-85
2023/10/30 03:40:02;;;;;;;6.47;1.37;;;9.70;99.90;;;;;;5007172;28;20263;-85
2023/10/30 03:42:28;;;;;;;6.03;1.43;;;9.70;99.90;;;;;;5006820;28;20233;-86
2023/10/30 03:44:55;;;;;;;6.30;1.50;;;9.70;99.90;;;;;;5008763;28;20239;-86
2023/10/30 03:47:22;;;;;;;4.37;1.40;;;9.70;99.90;;;;;;5011107;28;20822;-87
2023/10/30 03:49:49;;;;;;;4.70;1.30;;;9.80;99.90;;;;;;5010512;28;20695;-87
2023/10/30 03:52:18;;;;;;;5.17;1.17;;;9.70;99.90;;;;;;5009666;28;20382;-86
2023/10/30 03:54:46;;;;;;;7.23;1.50;;;9.70;99.90;;;;;;5007025;28;20240;-85
2023/10/30 03:57:13;;;;;;;4.87;1.77;;;9.80;99.90;;;;;;5024277;28;20239;-87
2023/10/30 03:59:40;;;;;;;5.50;1.80;;;9.80;99.90;;;;;;5029619;28;20702;-86
2023/10/30 04:02:07;;;;;;;7.77;1.70;;;9.80;99.90;;;;;;5029367;28;20294;-86
2023/10/30 04:04:33;;;;;;;5.03;1.30;;;9.70;99.90;;;;;;5027483;28;20281;-86
2023/10/30 04:07:01;;;;;;;6.27;1.50;;;9.70;99.90;;;;;;5028502;28;20232;-85
2023/10/30 04:09:30;;;;;;;6.97;1.50;;;9.70;99.90;;;;;;5023754;28;20741;-85
2023/10/30 04:11:57;;;;;;;3.90;1.40;;;9.70;99.90;;;;;;5029237;28;20240;-85
2023/10/30 04:14:23;;;;;;;7.70;1.70;;;9.70;99.90;;;;;;5021067;28;20739;-84
2023/10/30 04:16:50;;;;;;;8.07;1.67;;;9.70;99.90;;;;;;5012496;28;20603;-85
2023/10/30 04:19:17;;;;;;;8.13;1.60;;;9.70;99.90;;;;;;5026598;28;20232;-85
2023/10/30 04:21:44;;;;;;;7.37;1.77;;;9.70;99.90;;;;;;5028663;28;20599;-85
2023/10/30 04:24:11;;;;;;;3.47;1.40;;;9.70;99.90;;;;;;5025019;28;20230;-84
2023/10/30 04:26:39;;;;;;;6.37;1.80;;;9.70;99.90;;;;;;5024064;28;20228;-85
2023/10/30 04:29:05;;;;;;;6.67;1.80;;;9.70;99.90;;;;;;5023347;28;20760;-84
2023/10/30 04:31:32;;;;;;;7.07;1.63;;;9.70;99.90;;;;;;5027018;28;20316;-83
2023/10/30 04:33:59;;;;;;;6.43;1.70;;;9.70;99.90;;;;;;5025288;28;20286;-83
2023/10/30 04:36:26;;;;;;;8.30;2.10;;;9.70;99.90;;;;;;5023631;28;20224;-83
2023/10/30 04:38:52;;;;;;;6.73;1.40;;;9.70;99.90;;;;;;5025164;28;20728;-84
2023/10/30 04:41:19;;;;;;;7.13;1.57;;;9.70;99.90;;;;;;5023052;28;20228;-83
2023/10/30 04:43:47;;;;;;;8.40;2.17;;;9.70;99.90;;;;;;5026023;28;20235;-83
2023/10/30 04:46:14;;;;;;;10.37;1.87;;;9.70;99.90;;;;;;5028603;28;20225;-82
2023/10/30 04:48:41;;;;;;;6.70;1.53;;;9.70;99.90;;;;;;5013964;28;20294;-85
2023/10/30 04:51:08;;;;;;;8.37;1.60;;;9.70;99.90;;;;;;5015241;28;20249;-84
2023/10/30 04:53:35;;;;;;;6.23;1.53;;;9.70;99.90;;;;;;5007688;28;20783;-84
2023/10/30 04:56:03;;;;;;;7.73;1.50;;;9.70;99.90;;;;;;5003325;28;20314;-85
2023/10/30 04:58:30;;;;;;;4.73;1.50;;;9.70;99.90;;;;;;5003226;28;20240;-84
2023/10/30 05:00:59;;;;;;;5.00;1.37;;;9.70;99.90;;;;;;5003943;28;20252;-85
2023/10/30 05:03:25;;;;;;;8.93;1.63;;;9.70;99.90;;;;;;5001925;28;20236;-85
2023/10/30 05:05:52;;;;;;;9.77;1.80;;;9.70;99.90;;;;;;5000194;28;20308;-84
2023/10/30 05:08:20;;;;;;;6.47;1.83;;;9.70;99.90;;;;;;5005144;28;20733;-84
2023/10/30 05:10:46;;;;;;;7.07;1.57;;;9.70;99.90;;;;;;5006645;28;20313;-86
2023/10/30 05:13:13;;;;;;;3.83;1.37;;;9.70;99.90;;;;;;5006959;28;20223;-88
2023/10/30 05:15:40;;;;;;;5.73;1.97;;;9.70;99.90;;;;;;5004657;28;20315;-87
2023/10/30 05:18:08;;;;;;;10.33;1.80;;;9.70;99.90;;;;;;5005829;28;20241;-86
2023/10/30 05:20:35;;;;;;;9.17;1.83;;;9.70;99.90;;;;;;5007056;28;20236;-86
2023/10/30 05:23:02;;;;;;;8.17;1.90;;;9.70;99.90;;;;;;5005219;28;20313;-85
2023/10/30 05:25:29;;;;;;;5.47;1.73;;;9.70;99.90;;;;;;5005285;28;20716;-82
2023/10/30 05:27:57;;;;;;;6.07;1.93;;;9.60;99.90;;;;;;5020255;28;20740;-81
2023/10/30 05:30:24;;;;;;;3.43;1.50;;;9.60;99.90;;;;;;5016914;28;20745;-81
2023/10/30 05:32:50;;;;;;;7.13;1.60;;;9.60;99.90;;;;;;5007494;28;20258;-82
2023/10/30 05:35:18;;;;;;;7.27;1.73;;;9.60;99.90;;;;;;5006963;28;20327;-83
2023/10/30 05:37:45;;;;;;;5.37;1.50;;;9.50;99.90;;;;;;5016966;28;20281;-82
2023/10/30 05:40:13;;;;;;;7.80;1.90;;;9.50;99.90;;;;;;5024954;28;20256;-83
2023/10/30 05:42:39;;;;;;;8.10;1.80;;;9.50;99.90;;;;;;5008350;28;20231;-82
2023/10/30 05:45:07;;;;;;;7.53;1.97;;;9.50;99.90;;;;;;5005566;28;20240;-82
2023/10/30 05:47:34;;;;;;;8.00;1.70;;;9.40;99.90;;;;;;5005182;28;20714;-81
2023/10/30 05:50:02;;;;;;;5.47;1.63;;;9.40;99.90;;;;;;5006846;28;20232;-82
2023/10/30 05:52:30;;;;;;;6.07;1.60;;;9.40;99.90;;;;;;5007138;28;20224;-81
2023/10/30 05:54:56;;;;;;;9.67;2.00;;;9.40;99.90;;;;;;5005058;28;20232;-83
2023/10/30 05:57:23;;;;;;;5.93;1.50;;;9.40;99.90;;;;;;4999880;28;20236;-82
2023/10/30 05:59:50;;;;;;;6.83;1.37;;;9.40;99.90;;;;;;5001564;28;20242;-82
2023/10/30 06:02:16;;;;;;;6.63;1.77;;;9.30;99.90;;;;;;5013075;28;20447;-82
2023/10/30 06:04:43;;;;;;;6.90;1.70;;;9.30;99.90;;;;;;5022539;28;20227;-83
2023/10/30 06:07:10;;;;;;;6.63;1.80;;;9.30;99.90;;;;;;5025879;28;20232;-81
2023/10/30 06:09:38;;;;;;;7.67;1.90;;;9.30;99.90;;;;;;5024357;28;20257;-81
2023/10/30 06:12:06;;;;;;;9.70;1.67;;;9.30;99.90;;;;;;5012505;28;20240;-81
2023/10/30 06:14:32;;;;;;;9.23;2.07;;;9.20;99.90;;;;;;5004666;28;20294;-84
2023/10/30 06:17:01;;;;;;;6.03;2.33;;;9.30;99.90;;;;;;5000424;28;20229;-84
2023/10/30 06:19:28;;;;;;;7.60;1.63;;;9.20;99.90;;;;;;5005741;28;20711;-83
2023/10/30 06:21:55;;;;;;;7.37;1.87;;;9.20;99.90;;;;;;5005856;28;20230;-83
2023/10/30 06:24:22;;;;;;;8.10;1.80;;;9.20;99.90;;;;;;4994703;28;20247;-83
2023/10/30 06:26:50;;;;;;;7.73;1.70;;;9.20;99.90;;;;;;5003641;28;20311;-83
2023/10/30 06:29:17;;;;;;;6.10;1.90;;;9.20;99.90;;;;;;4995755;28;20317;-83
2023/10/30 06:31:44;;;;;;;12.67;4.70;;;9.20;99.90;;;;;;5004509;28;20227;-83
2023/10/30 06:34:13;;;;;;;10.83;2.27;;;9.20;99.90;;;;;;5004679;28;20344;-84
2023/10/30 06:36:39;;;;;;;5.93;1.73;;;9.10;99.90;;;;;;5003448;28;20229;-83
2023/10/30 06:39:06;;;;;;;11.37;2.07;;;9.10;99.90;;;;;;5003754;28;20250;-83
2023/10/30 06:41:33;;;;;;;7.20;1.83;;;9.20;99.90;;;;;;5007736;28;20227;-83
2023/10/30 06:44:02;;;;;;;6.03;1.80;;;9.20;99.90;;;;;;5008459;28;20216;-84
2023/10/30 06:46:29;;;;;;;6.10;1.83;;;9.10;99.90;;;;;;5006131;28;20244;-83
2023/10/30 06:48:56;;;;;;;6.37;1.63;;;9.10;99.90;;;;;;5004523;28;20229;-84
2023/10/30 06:51:22;;;;;;;6.53;1.73;;;9.10;99.90;;;;;;5008189;28;20225;-83
2023/10/30 06:53:49;;;;;;;8.37;1.77;;;9.10;99.90;;;;;;5006408;28;20231;-84
2023/10/30 06:56:16;;;;;;;5.07;1.90;;;9.10;99.90;;;;;;5001423;28;20222;-84
2023/10/30 06:58:43;;;;;;;7.20;1.60;;;9.10;99.90;;;;;;5005624;28;20478;-84
2023/10/30 07:01:11;;;;;;;8.60;2.10;;;9.10;99.90;;;;;;4995816;28;20290;-83
2023/10/30 07:03:39;;;;;;;7.63;2.17;;;9.10;99.90;;;;;;4991959;28;20220;-83
2023/10/30 07:06:07;;;;;;;6.37;1.80;;;9.10;99.90;;;;;;5002310;28;20895;-86
2023/10/30 07:08:34;;;;;;;6.13;1.83;;;9.10;99.90;;;;;;5009744;28;20931;-84
2023/10/30 07:11:00;;;;;;;8.20;2.30;;;9.10;99.90;;;;;;5006346;28;20775;-84
2023/10/30 07:13:27;;;;;;;8.13;2.10;;;9.00;99.90;;;;;;5010773;28;20235;-83
2023/10/30 07:15:54;;;;;;;6.63;1.70;;;9.10;99.90;;;;;;5006898;28;20230;-84
2023/10/30 07:18:22;;;;;;;8.10;1.90;;;9.10;99.90;;;;;;5003539;28;20232;-84
2023/10/30 07:20:49;;;;;;;8.33;2.00;;;9.10;99.90;;;;;;5004827;28;20275;-84
2023/10/30 07:23:16;;;;;;;9.00;1.90;;;9.10;99.90;;;;;;5004853;28;20270;-83
2023/10/30 07:25:42;;;;;;;9.03;1.60;;;9.10;99.90;;;;;;5008582;28;20251;-84
2023/10/30 07:28:11;;;;;;;5.53;1.90;;;9.10;99.90;;;;;;5008597;28;20304;-84
2023/10/30 07:30:38;;;;;;;5.40;1.50;;;9.20;99.90;;;;;;5010074;28;20233;-81
2023/10/30 07:33:04;;;;;;;10.27;1.97;;;9.20;99.90;;;;;;5011948;28;20235;-81
2023/10/30 07:35:32;;;;;;;6.87;1.43;;;9.20;99.90;;;;;;5007297;28;20237;-82
2023/10/30 07:37:59;;;;;;;4.63;1.70;;;9.20;99.90;;;;;;5015949;28;20231;-83
2023/10/30 07:40:26;;;;;;;5.27;1.50;;;9.20;99.90;;;;;;5008006;28;20236;-85
2023/10/30 07:42:53;;;;;;;6.03;1.60;;;9.20;99.90;;;;;;4997632;28;20223;-82
2023/10/30 07:45:20;;;;;;;6.30;2.10;;;9.20;99.90;;;;;;5000309;28;20304;-84
2023/10/30 07:47:47;;;;;;;4.93;2.07;;;9.20;99.90;;;;;;5027851;28;20319;-83
2023/10/30 07:50:13;;;;;;;9.07;1.97;;;9.20;99.90;;;;;;5022036;28;20240;-83
2023/10/30 07:52:42;;;;;;;8.20;1.50;;;9.20;99.90;;;;;;5009396;28;20650;-86
2023/10/30 07:55:09;;;;;;;6.63;1.60;;;9.20;99.90;;;;;;5011152;28;20232;-85
2023/10/30 07:57:36;;;;;;;11.37;2.00;;;9.30;99.90;;;;;;5016566;28;20228;-83
2023/10/30 08:00:03;;;;;;;4.97;1.90;;;9.30;99.90;;;;;;5006865;28;20228;-85
2023/10/30 08:02:39;;;;;;;6.60;1.70;;;9.30;99.90;;;;;;5010633;28;20217;-85
2023/10/30 08:05:07;;;;;;;8.70;2.43;;;9.30;99.90;;;;;;5018154;28;20232;-84
2023/10/30 08:07:34;;;;;;;10.03;2.30;;;9.30;99.90;;;;;;5011502;28;20703;-84
2023/10/30 08:10:03;;;;;;;6.40;1.50;;;9.30;99.90;;;;;;5007169;28;20224;-84
2023/10/30 08:12:29;;;;;;;6.07;2.10;;;9.40;99.90;;;;;;5005090;28;20225;-84
2023/10/30 08:14:56;;;;;;;9.20;1.97;;;9.40;99.90;;;;;;5013082;28;20226;-84
2023/10/30 08:17:23;;;;;;;5.37;1.73;;;9.50;99.90;;;;;;5015152;28;20224;-85
2023/10/30 08:19:49;;;;;;;9.40;1.80;;;9.50;99.90;;;;;;5004941;28;20221;-85
2023/10/30 08:22:16;;;;;;;6.03;1.90;;;9.60;99.90;;;;;;5010445;28;20231;-83
2023/10/30 08:24:43;;;;;;;5.17;1.50;;;9.70;99.90;;;;;;5011907;28;20251;-86
2023/10/30 08:27:11;;;;;;;7.77;1.73;;;9.80;99.90;;;;;;5009459;28;20221;-86
2023/10/30 08:29:37;;;;;;;7.17;1.77;;;10.00;99.90;;;;;;5012860;28;20232;-85
2023/10/30 08:32:04;;;;;;;6.53;1.70;;;10.10;99.90;;;;;;5010329;28;20300;-84
2023/10/30 08:34:31;;;;;;;6.83;1.87;;;10.30;99.90;;;;;;5009689;28;20302;-81
2023/10/30 08:36:58;;;;;;;11.23;2.80;;;10.60;99.90;;;;;;5014193;28;20227;-83
2023/10/30 08:39:25;;;;;;;7.23;2.00;;;10.80;99.90;;;;;;5024442;28;20233;-85
2023/10/30 08:41:52;;;;;;;7.73;1.90;;;11.10;99.90;;;;;;4999912;28;20225;-84
2023/10/30 08:44:20;;;;;;;8.63;2.10;;;11.40;99.90;;;;;;5016700;28;20226;-83
2023/10/30 08:46:46;;;;;;;6.27;2.00;;;11.60;99.90;;;;;;5010997;28;20235;-83
2023/10/30 08:49:13;;;;;;;7.53;1.80;;;11.90;99.90;;;;;;5006689;28;20237;-82
2023/10/30 08:51:41;;;;;;;4.87;1.80;;;12.10;99.90;;;;;;4994760;28;20230;-82
2023/10/30 08:54:08;;;;;;;6.80;1.70;;;12.40;99.90;;;;;;5006559;28;20226;-82
2023/10/30 08:56:36;;;;;;;6.03;1.70;;;12.60;99.90;;;;;;5006468;28;20226;-82
2023/10/30 08:59:03;;;;;;;9.87;1.87;;;12.90;99.90;;;;;;5009705;28;20237;-83
2023/10/30 09:01:32;;;;;;;5.67;1.93;;;13.10;99.90;;;;;;5005814;28;20282;-83
2023/10/30 09:03:59;;;;;;;9.17;2.37;;;13.40;99.90;;;;;;5006571;28;20743;-83
2023/10/30 09:06:27;;;;;;;6.33;1.87;;;13.60;99.90;;;;;;5005818;28;20218;-86
2023/10/30 09:08:54;;;;;;;10.03;1.80;;;13.90;99.90;;;;;;5001078;28;20315;-83
2023/10/30 09:11:21;;;;;;;7.73;2.47;;;14.10;99.90;;;;;;5005134;28;20226;-85
2023/10/30 09:13:49;;;;;;;8.50;2.00;;;14.20;99.90;;;;;;5006968;28;21010;-83
2023/10/30 09:16:15;;;;;;;6.80;1.63;;;14.40;99.90;;;;;;5003336;28;20277;-84
2023/10/30 09:18:43;;;;;;;7.07;1.80;;;14.60;99.90;;;;;;5003413;28;20230;-81
2023/10/30 09:21:10;;;;;;;7.30;1.60;;;14.70;99.90;;;;;;5002794;28;20233;-82
2023/10/30 09:23:36;;;;;;;6.60;1.90;;;14.90;99.90;;;;;;4997768;28;20232;-81
2023/10/30 09:26:04;;;;;;;8.27;1.93;;;15.00;99.90;;;;;;5002375;28;20218;-81
2023/10/30 09:28:31;;;;;;;5.57;1.70;;;15.20;99.90;;;;;;4987130;28;20232;-81
2023/10/30 09:30:57;;;;;;;7.27;2.40;;;15.40;99.90;;;;;;5004491;28;20221;-81
2023/10/30 09:33:24;;;;;;;8.30;2.20;;;15.50;99.90;;;;;;5002878;28;22595;-83
2023/10/30 09:35:52;;;;;;;5.57;2.10;;;15.70;99.90;;;;;;5000104;28;20225;-81
2023/10/30 09:38:19;;;;;;;8.80;1.93;;;15.80;99.90;;;;;;5002860;28;20629;-80
2023/10/30 09:40:48;;;;;;;8.23;2.10;;;15.90;99.90;;;;;;5003212;28;20235;-84
2023/10/30 09:43:16;;;;;;;8.80;1.83;;;16.00;99.90;;;;;;5005958;28;20224;-82
2023/10/30 09:45:44;;;;;;;6.07;1.90;;;16.10;99.90;;;;;;5005144;28;21034;-85
2023/10/30 09:48:12;;;;;;;6.20;1.67;;;16.20;99.90;;;;;;5001432;28;20227;-84
2023/10/30 09:50:40;;;;;;;8.03;2.20;;;16.30;99.90;;;;;;5003986;28;20223;-82
2023/10/30 09:53:10;;;;;;;8.87;1.80;;;16.40;99.90;;;;;;4998334;28;20231;-81
2023/10/30 09:55:38;;;;;;;4.57;1.77;;;16.50;99.90;;;;;;4999131;28;20251;-84
2023/10/30 09:58:04;;;;;;;7.10;2.20;;;16.60;99.90;;;;;;4999344;28;20220;-82
2023/10/30 10:00:32;;;;;;;6.73;1.90;;;16.70;99.90;;;;;;4997559;28;20886;-83
2023/10/30 10:02:58;;;;;;;6.40;1.63;;;16.70;99.90;;;;;;5013702;28;20223;-84
2023/10/30 10:05:25;;;;;;;6.77;2.10;;;16.80;99.90;;;;;;5001808;28;20243;-82
2023/10/30 10:07:52;;;;;;;6.90;1.70;;;16.80;99.90;;;;;;4994451;28;20229;-82
2023/10/30 10:10:20;;;;;;;6.70;2.27;;;16.80;99.90;;;;;;5004739;28;20223;-82
2023/10/30 10:12:51;;;;;;;8.33;2.00;;;16.80;99.90;;;;;;5002755;28;20239;-83
2023/10/30 10:15:20;;;;;;;6.03;1.60;;;16.80;99.90;;;;;;5005089;28;20220;-82
2023/10/30 10:17:48;;;;;;;5.40;1.87;;;16.70;99.90;;;;;;5000545;28;20313;-82
2023/10/30 10:20:16;;;;;;;7.40;2.03;;;16.70;99.90;;;;;;5002538;28;20231;-82
2023/10/30 10:22:43;;;;;;;5.53;1.67;;;16.70;99.90;;;;;;4991163;28;20227;-82
2023/10/30 10:25:11;;;;;;;6.73;1.63;;;16.60;99.90;;;;;;5004208;28;20232;-83
2023/10/30 10:27:40;;;;;;;4.43;1.63;;;16.40;99.90;;;;;;5006006;28;20229;-83
2023/10/30 10:30:09;;;;;;;5.77;1.70;;;16.40;99.90;;;;;;5002503;28;20253;-82
2023/10/30 10:32:37;;;;;;;9.03;2.37;;;16.30;99.90;;;;;;4999522;28;20336;-82
2023/10/30 10:35:05;;;;;;;7.13;1.93;;;16.20;99.90;;;;;;5008011;28;20560;-81
2023/10/30 10:37:33;;;;;;;5.23;1.80;;;16.10;99.90;;;;;;4999383;28;20717;-82
2023/10/30 10:40:01;;;;;;;5.53;2.00;;;16.10;99.90;;;;;;5004205;28;20307;-81
2023/10/30 10:42:28;;;;;;;6.83;2.00;;;16.00;99.90;;;;;;5003663;28;20224;-82
2023/10/30 10:44:58;;;;;;;9.07;1.87;;;16.00;99.90;;;;;;5004282;28;20225;-82
2023/10/30 10:47:24;;;;;;;5.33;1.70;;;16.00;99.90;;;;;;5003541;28;20738;-82
2023/10/30 10:49:51;;;;;;;6.83;1.83;;;16.10;99.90;;;;;;5010319;28;20236;-85
2023/10/30 10:52:19;;;;;;;5.57;2.20;;;16.20;99.90;;;;;;5002541;28;20239;-82
2023/10/30 10:54:50;;;;;;;6.77;1.90;;;16.20;99.90;;;;;;5009393;28;20256;-84
2023/10/30 10:57:20;;;;;;;5.60;2.20;;;16.30;99.90;;;;;;5008219;28;20223;-82
2023/10/30 10:59:48;;;;;;;4.57;1.70;;;16.40;99.90;;;;;;4995083;28;20264;-83
2023/10/30 11:02:21;;;;;;;5.43;1.70;;;16.40;99.90;;;;;;5003866;28;20224;-82
2023/10/30 11:04:50;;;;;;;9.60;2.07;;;16.40;99.90;;;;;;5002319;28;20302;-83
2023/10/30 11:07:25;;;;;;;6.93;1.93;;;16.40;99.90;;;;;;5021205;28;20224;-82
2023/10/30 11:09:58;;;;;;;6.93;2.00;;;16.50;99.90;;;;;;5019113;28;20220;-84
2023/10/30 11:12:37;;;;;;;6.27;2.00;;;16.50;99.90;;;;;;5002445;28;25793;-82
2023/10/30 11:15:12;;;;;;;9.07;1.83;;;16.60;99.90;;;;;;5024031;28;20226;-82
2023/10/30 11:17:40;;;;;;;8.13;2.20;;;16.60;99.90;;;;;;5009820;28;20689;-82
2023/10/30 11:20:09;;;;;;;10.07;2.37;;;16.60;99.90;;;;;;5010059;28;20223;-81
2023/10/30 11:22:41;;;;;;;6.77;1.70;;;16.70;99.90;;;;;;5008666;28;20242;-82
2023/10/30 11:25:34;;;;;;;7.53;2.10;;;16.70;99.90;;;;;;5005670;28;20220;-81
2023/10/30 11:28:01;;;;;;;7.07;1.87;;;16.70;99.90;;;;;;5011792;28;20232;-81
2023/10/30 11:30:32;;;;;;;6.83;1.80;;;16.80;99.90;;;;;;5005383;28;20227;-83
2023/10/30 11:33:01;;;;;;;6.07;2.00;;;16.80;99.90;;;;;;5011492;28;20286;-82
2023/10/30 11:35:30;;;;;;;7.07;2.07;;;16.70;99.90;;;;;;5011483;28;20919;-81
2023/10/30 11:37:57;;;;;;;7.80;1.90;;;16.80;99.90;;;;;;5011951;28;20223;-83
2023/10/30 11:40:25;;;;;;;9.93;2.43;;;16.80;99.90;;;;;;5008642;28;20225;-81
2023/10/30 11:42:56;;;;;;;7.17;2.07;;;16.70;99.90;;;;;;5008643;28;20225;-81
2023/10/30 11:45:25;;;;;;;7.47;1.93;;;16.50;99.90;;;;;;5010471;28;20766;-82
2023/10/30 11:48:02;;;;;;;7.57;2.00;;;16.50;99.90;;;;;;5012104;28;20797;-82
2023/10/30 11:50:32;;;;;;;4.73;1.73;;;16.30;99.90;;;;;;4999036;28;20225;-81
2023/10/30 11:53:00;;;;;;;9.97;1.83;;;16.30;99.90;;;;;;5003504;28;20220;-81
2023/10/30 11:55:30;;;;;;;5.73;1.70;;;16.20;99.90;;;;;;5008227;28;20250;-81
2023/10/30 11:57:58;;;;;;;11.47;2.03;;;16.00;99.90;;;;;;5006932;28;20600;-80
2023/10/30 12:00:25;;;;;;;6.63;1.90;;;16.00;99.90;;;;;;5008250;28;20234;-81
2023/10/30 12:02:52;;;;;;;6.27;1.67;;;15.90;99.90;;;;;;5008026;28;20224;-81
2023/10/30 12:05:21;;;;;;;6.73;1.57;;;15.80;99.90;;;;;;5007610;28;20246;-82
2023/10/30 12:07:49;;;;;;;7.63;2.03;;;15.80;99.90;;;;;;5010292;28;20243;-81
2023/10/30 12:10:17;;;;;;;6.37;1.90;;;15.80;99.90;;;;;;5001981;28;20233;-83
2023/10/30 12:12:43;;;;;;;6.23;1.80;;;15.90;99.90;;;;;;5010884;28;20745;-83
2023/10/30 12:15:10;;;;;;;6.37;1.63;;;15.80;99.90;;;;;;5008482;28;20228;-83
2023/10/30 12:17:39;;;;;;;6.00;1.73;;;15.90;99.90;;;;;;5005991;28;20233;-82
2023/10/30 12:20:07;;;;;;;9.43;2.13;;;15.80;99.90;;;;;;5008321;28;20239;-82
2023/10/30 12:22:40;;;;;;;6.00;1.87;;;15.80;99.90;;;;;;5005656;28;20242;-83
2023/10/30 12:25:07;;;;;;;5.50;1.67;;;15.80;99.90;;;;;;5011401;28;20224;-82
2023/10/30 12:27:34;;;;;;;5.83;1.90;;;15.80;99.90;;;;;;5005563;28;20276;-82
2023/10/30 12:30:10;;;;;;;7.97;1.67;;;15.80;99.90;;;;;;5009470;28;20225;-82
2023/10/30 12:32:36;;;;;;;6.07;1.73;;;15.80;99.90;;;;;;5008141;28;20252;-84
2023/10/30 12:35:10;;;;;;;10.90;2.33;;;15.80;99.90;;;;;;5007038;28;20339;-84
2023/10/30 12:37:39;;;;;;;5.83;1.90;;;15.80;99.90;;;;;;5006444;28;20243;-84
2023/10/30 12:40:08;;;;;;;6.80;1.63;;;15.80;99.90;;;;;;5008132;28;20253;-84
2023/10/30 12:42:36;;;;;;;8.73;2.37;;;15.70;99.90;;;;;;5010992;28;20231;-83
2023/10/30 12:45:06;;;;;;;6.70;1.80;;;15.70;99.90;;;;;;5009075;28;20461;-80
2023/10/30 12:47:33;;;;;;;8.50;1.60;;;15.70;99.90;;;;;;5014550;28;20230;-80
2023/10/30 12:50:00;;;;;;;9.00;2.03;;;15.70;99.90;;;;;;5005355;28;20226;-81
2023/10/30 12:52:26;;;;;;;7.73;2.27;;;15.70;99.90;;;;;;5008416;28;20719;-81